Cinderella 1 — SBLK — position and weather

sailwx.info

Track history (hours):
 
Tides and Currents Weather Stations Pressure Air Temp Water Temp Dewpoint Dewpoint Depression Visibility Wind Speed Wind Dir Waves Ship Positions

Cinderella 1

Last reported at 2016-Jul-23 08:05 UTC. Time now 2016-Jul-23 11:07 UTC.
Position N 59°19' E 018°06'.

Length 42 m; draft 1.1 m.

Type: Passenger vessel. MMSI: 265524530.

Date/timePositionNaut miles runAvg speedWind from/ knotsBaromVisibWave heightAir tempDewpointWater temp
2016-Jul-23 08:05N 59°19' E 018°06'1 1.6
2016-Jul-23 07:33N 59°20' E 018°05'0 0.0
2016-Jul-23 06:32N 59°20' E 018°05'0 0.0
2016-Jul-23 04:32N 59°20' E 018°05'0 0.0
2016-Jul-23 03:33N 59°20' E 018°05'0 0.0
2016-Jul-23 02:30N 59°20' E 018°05'0 0.0
2016-Jul-23 01:31N 59°20' E 018°05'0 0.0
2016-Jul-23 00:33N 59°20' E 018°05'0 0.0
2016-Jul-22 23:34N 59°20' E 018°05'0 0.0
2016-Jul-22 22:33N 59°20' E 018°05'0 0.0
2016-Jul-22 21:31N 59°20' E 018°05'0 0.1
2016-Jul-22 15:33N 59°20' E 018°05'1 0.1
2016-Jul-22 08:06N 59°19' E 018°06'1 1.9
2016-Jul-22 07:33N 59°20' E 018°05'0 0.0
2016-Jul-22 05:33N 59°20' E 018°05'0 0.0
2016-Jul-22 04:33N 59°20' E 018°05'0 0.0
2016-Jul-22 03:33N 59°20' E 018°05'0 0.0
2016-Jul-22 02:33N 59°20' E 018°05'0 0.0
2016-Jul-22 01:33N 59°20' E 018°05'0 0.0
2016-Jul-22 00:33N 59°20' E 018°05'0 0.0
2016-Jul-21 23:33N 59°20' E 018°05'0 0.0
2016-Jul-21 22:33N 59°20' E 018°05'0 0.0
2016-Jul-21 21:31N 59°20' E 018°05'1 0.1
2016-Jul-21 15:33N 59°20' E 018°05'3 0.4
2016-Jul-21 08:20N 59°19' E 018°11'3 2.9
2016-Jul-21 07:18N 59°20' E 018°05'0 0.0
2016-Jul-21 06:32N 59°20' E 018°05'0 0.0
2016-Jul-21 05:33N 59°20' E 018°05'0 0.0
2016-Jul-21 04:33N 59°20' E 018°05'0 0.0
2016-Jul-21 03:33N 59°20' E 018°05'0 0.0
2016-Jul-21 02:33N 59°20' E 018°05'0 0.0
2016-Jul-21 01:33N 59°20' E 018°05'0 0.0
2016-Jul-21 00:33N 59°20' E 018°05'0 0.0
2016-Jul-20 23:33N 59°20' E 018°05'0 0.0
2016-Jul-20 22:33N 59°20' E 018°05'0 0.0
2016-Jul-20 21:33N 59°20' E 018°05'3 2.6
2016-Jul-20 20:27N 59°19' E 018°10'3 0.5
2016-Jul-20 15:33N 59°20' E 018°05'2 1.9
2016-Jul-20 14:27N 59°19' E 018°09'1 0.1
2016-Jul-20 08:21N 59°20' E 018°11'3 3.8
2016-Jul-20 07:32N 59°20' E 018°05'0 0.0
2016-Jul-19 22:27N 59°20' E 018°05'3 1.4
2016-Jul-19 20:27N 59°19' E 018°10'2 0.5
2016-Jul-19 15:34N 59°20' E 018°05'1 0.6
2016-Jul-19 14:33N 59°19' E 018°06'3 0.5
2016-Jul-19 08:22N 59°20' E 018°12'4 3.6
2016-Jul-19 07:23N 59°20' E 018°05'0 0.0
2016-Jul-19 04:29N 59°20' E 018°05'0 0.0
2016-Jul-19 03:33N 59°20' E 018°05'0 0.0
2016-Jul-19 02:32N 59°20' E 018°05'0 0.0
2016-Jul-19 01:32N 59°20' E 018°05'0 0.0
2016-Jul-19 00:34N 59°20' E 018°05'0 0.0
2016-Jul-18 23:26N 59°20' E 018°05'0 0.0
2016-Jul-18 22:31N 59°20' E 018°05'0 0.0
2016-Jul-18 21:34N 59°20' E 018°05'0 0.3
2016-Jul-18 20:34N 59°20' E 018°05'0 0.0
2016-Jul-18 15:34N 59°20' E 018°05'0 0.4
2016-Jul-18 14:33N 59°20' E 018°05'1 0.1
2016-Jul-18 08:04N 59°19' E 018°05'1 1.1
2016-Jul-18 07:33N 59°20' E 018°05'0 0.0
2016-Jul-18 06:33N 59°20' E 018°05'0 0.0
2016-Jul-18 05:22N 59°20' E 018°05'0 0.0
2016-Jul-18 04:27N 59°20' E 018°05'0 0.0
2016-Jul-18 03:30N 59°20' E 018°05'0 0.0
2016-Jul-18 02:30N 59°20' E 018°05'0 0.0
2016-Jul-18 01:08N 59°20' E 018°05'0 0.0
2016-Jul-18 00:06N 59°20' E 018°05'3 0.4
2016-Jul-17 15:06N 59°20' E 018°11'3 5.8
2016-Jul-17 14:31N 59°20' E 018°05'3 0.5
2016-Jul-17 08:19N 59°20' E 018°11'3 4.1
2016-Jul-17 07:33N 59°20' E 018°05'0 0.0
2016-Jul-17 06:33N 59°20' E 018°05'0 0.0
2016-Jul-17 04:33N 59°20' E 018°05'0 0.0
2016-Jul-17 03:33N 59°20' E 018°05'0 0.0
2016-Jul-17 02:33N 59°20' E 018°05'0 0.0
2016-Jul-17 01:33N 59°20' E 018°05'0 0.0
2016-Jul-17 00:33N 59°20' E 018°05'0 0.0
2016-Jul-16 23:33N 59°20' E 018°05'0 0.0
2016-Jul-16 22:33N 59°20' E 018°05'0 0.0
2016-Jul-16 21:33N 59°20' E 018°05'0 0.0
2016-Jul-16 20:33N 59°20' E 018°05'3 2.7
2016-Jul-16 19:31N 59°19' E 018°10'1 0.2
2016-Jul-16 15:08N 59°20' E 018°11'3 5.8
2016-Jul-16 14:33N 59°20' E 018°05'3 0.5
2016-Jul-16 08:21N 59°20' E 018°11'3 4.2
2016-Jul-16 07:33N 59°20' E 018°05'0 0.0
2016-Jul-16 04:34N 59°20' E 018°05'0 0.0
2016-Jul-16 03:29N 59°20' E 018°05'0 0.0
2016-Jul-16 02:33N 59°20' E 018°05'0 0.0
2016-Jul-16 01:28N 59°20' E 018°05'0 0.0
2016-Jul-16 00:30N 59°20' E 018°05'0 0.0
2016-Jul-15 22:04N 59°20' E 018°05'0 0.0
2016-Jul-15 21:14N 59°20' E 018°05'0 0.1
2016-Jul-15 20:33N 59°20' E 018°05'0 0.1
2016-Jul-15 15:33N 59°20' E 018°05'0 0.4
2016-Jul-15 14:21N 59°20' E 018°05'1 0.2
2016-Jul-15 08:07N 59°19' E 018°06'1 1.6
2016-Jul-15 07:30N 59°20' E 018°05'0 0.0
2016-Jul-15 04:30N 59°20' E 018°05'0 0.0
2016-Jul-15 03:33N 59°20' E 018°05'0 0.0
2016-Jul-15 02:32N 59°20' E 018°05'0 0.0
2016-Jul-15 01:31N 59°20' E 018°05'0 0.0
2016-Jul-15 00:33N 59°20' E 018°05'0 0.0
2016-Jul-14 23:33N 59°20' E 018°05'0 0.0
2016-Jul-14 22:33N 59°20' E 018°05'0 0.0
2016-Jul-14 21:27N 59°20' E 018°05'0 0.1
2016-Jul-14 20:33N 59°20' E 018°05'0 0.1
2016-Jul-14 15:33N 59°20' E 018°05'0 0.5
2016-Jul-14 14:33N 59°20' E 018°05'1 0.2
2016-Jul-14 08:09N 59°19' E 018°06'1 1.9
2016-Jul-14 07:31N 59°20' E 018°05'0 0.0
2016-Jul-14 06:30N 59°20' E 018°05'0 0.0
2016-Jul-14 05:32N 59°20' E 018°05'0 0.0
2016-Jul-14 03:32N 59°20' E 018°05'0 0.0
2016-Jul-14 02:33N 59°20' E 018°05'0 0.0
2016-Jul-14 01:33N 59°20' E 018°05'0 0.0
2016-Jul-14 00:30N 59°20' E 018°05'0 0.0
2016-Jul-13 23:33N 59°20' E 018°05'0 0.0
2016-Jul-13 22:33N 59°20' E 018°05'0 0.0
2016-Jul-13 21:32N 59°20' E 018°05'3 2.5
2016-Jul-13 20:23N 59°19' E 018°10'3 0.5
2016-Jul-13 15:33N 59°20' E 018°05'0 0.4
2016-Jul-13 14:25N 59°20' E 018°05'1 0.2
2016-Jul-13 08:08N 59°19' E 018°06'  
Track history (hours):
 
Tides and Currents Weather Stations Pressure Air Temp Water Temp Dewpoint Dewpoint Depression Visibility Wind Speed Wind Dir Waves Ship Positions

Cinderella 1

Last reported at 2016-Jul-23 08:05 UTC. Time now 2016-Jul-23 11:07 UTC.
Position N 59°19' E 018°06'.

Length 42 m; draft 1.1 m.

Type: Passenger vessel. MMSI: 265524530.

Date/timePositionNaut miles runAvg speedWind from/ knotsBaromVisibWave heightAir tempDewpointWater temp
2016-Jul-23 08:05N 59°19' E 018°06'1 1.6
2016-Jul-23 07:33N 59°20' E 018°05'0 0.0
2016-Jul-23 06:32N 59°20' E 018°05'0 0.0
2016-Jul-23 04:32N 59°20' E 018°05'0 0.0
2016-Jul-23 03:33N 59°20' E 018°05'0 0.0
2016-Jul-23 02:30N 59°20' E 018°05'0 0.0
2016-Jul-23 01:31N 59°20' E 018°05'0 0.0
2016-Jul-23 00:33N 59°20' E 018°05'0 0.0
2016-Jul-22 23:34N 59°20' E 018°05'0 0.0
2016-Jul-22 22:33N 59°20' E 018°05'0 0.0
2016-Jul-22 21:31N 59°20' E 018°05'0 0.1
2016-Jul-22 15:33N 59°20' E 018°05'1 0.1
2016-Jul-22 08:06N 59°19' E 018°06'1 1.9
2016-Jul-22 07:33N 59°20' E 018°05'0 0.0
2016-Jul-22 05:33N 59°20' E 018°05'0 0.0
2016-Jul-22 04:33N 59°20' E 018°05'0 0.0
2016-Jul-22 03:33N 59°20' E 018°05'0 0.0
2016-Jul-22 02:33N 59°20' E 018°05'0 0.0
2016-Jul-22 01:33N 59°20' E 018°05'0 0.0
2016-Jul-22 00:33N 59°20' E 018°05'0 0.0
2016-Jul-21 23:33N 59°20' E 018°05'0 0.0
2016-Jul-21 22:33N 59°20' E 018°05'0 0.0
2016-Jul-21 21:31N 59°20' E 018°05'1 0.1
2016-Jul-21 15:33N 59°20' E 018°05'3 0.4
2016-Jul-21 08:20N 59°19' E 018°11'3 2.9
2016-Jul-21 07:18N 59°20' E 018°05'0 0.0
2016-Jul-21 06:32N 59°20' E 018°05'0 0.0
2016-Jul-21 05:33N 59°20' E 018°05'0 0.0
2016-Jul-21 04:33N 59°20' E 018°05'0 0.0
2016-Jul-21 03:33N 59°20' E 018°05'0 0.0
2016-Jul-21 02:33N 59°20' E 018°05'0 0.0
2016-Jul-21 01:33N 59°20' E 018°05'0 0.0
2016-Jul-21 00:33N 59°20' E 018°05'0 0.0
2016-Jul-20 23:33N 59°20' E 018°05'0 0.0
2016-Jul-20 22:33N 59°20' E 018°05'0 0.0
2016-Jul-20 21:33N 59°20' E 018°05'3 2.6
2016-Jul-20 20:27N 59°19' E 018°10'3 0.5
2016-Jul-20 15:33N 59°20' E 018°05'2 1.9
2016-Jul-20 14:27N 59°19' E 018°09'1 0.1
2016-Jul-20 08:21N 59°20' E 018°11'3 3.8
2016-Jul-20 07:32N 59°20' E 018°05'0 0.0
2016-Jul-19 22:27N 59°20' E 018°05'3 1.4
2016-Jul-19 20:27N 59°19' E 018°10'2 0.5
2016-Jul-19 15:34N 59°20' E 018°05'1 0.6
2016-Jul-19 14:33N 59°19' E 018°06'3 0.5
2016-Jul-19 08:22N 59°20' E 018°12'4 3.6
2016-Jul-19 07:23N 59°20' E 018°05'0 0.0
2016-Jul-19 04:29N 59°20' E 018°05'0 0.0
2016-Jul-19 03:33N 59°20' E 018°05'0 0.0
2016-Jul-19 02:32N 59°20' E 018°05'0 0.0
2016-Jul-19 01:32N 59°20' E 018°05'0 0.0
2016-Jul-19 00:34N 59°20' E 018°05'0 0.0
2016-Jul-18 23:26N 59°20' E 018°05'0 0.0
2016-Jul-18 22:31N 59°20' E 018°05'0 0.0
2016-Jul-18 21:34N 59°20' E 018°05'0 0.3
2016-Jul-18 20:34N 59°20' E 018°05'0 0.0
2016-Jul-18 15:34N 59°20' E 018°05'0 0.4
2016-Jul-18 14:33N 59°20' E 018°05'1 0.1
2016-Jul-18 08:04N 59°19' E 018°05'1 1.1
2016-Jul-18 07:33N 59°20' E 018°05'0 0.0
2016-Jul-18 06:33N 59°20' E 018°05'0 0.0
2016-Jul-18 05:22N 59°20' E 018°05'0 0.0
2016-Jul-18 04:27N 59°20' E 018°05'0 0.0
2016-Jul-18 03:30N 59°20' E 018°05'0 0.0
2016-Jul-18 02:30N 59°20' E 018°05'0 0.0
2016-Jul-18 01:08N 59°20' E 018°05'0 0.0
2016-Jul-18 00:06N 59°20' E 018°05'3 0.4
2016-Jul-17 15:06N 59°20' E 018°11'3 5.8
2016-Jul-17 14:31N 59°20' E 018°05'3 0.5
2016-Jul-17 08:19N 59°20' E 018°11'3 4.1
2016-Jul-17 07:33N 59°20' E 018°05'0 0.0
2016-Jul-17 06:33N 59°20' E 018°05'0 0.0
2016-Jul-17 04:33N 59°20' E 018°05'0 0.0
2016-Jul-17 03:33N 59°20' E 018°05'0 0.0
2016-Jul-17 02:33N 59°20' E 018°05'0 0.0
2016-Jul-17 01:33N 59°20' E 018°05'0 0.0
2016-Jul-17 00:33N 59°20' E 018°05'0 0.0
2016-Jul-16 23:33N 59°20' E 018°05'0 0.0
2016-Jul-16 22:33N 59°20' E 018°05'0 0.0
2016-Jul-16 21:33N 59°20' E 018°05'0 0.0
2016-Jul-16 20:33N 59°20' E 018°05'3 2.7
2016-Jul-16 19:31N 59°19' E 018°10'1 0.2
2016-Jul-16 15:08N 59°20' E 018°11'3 5.8
2016-Jul-16 14:33N 59°20' E 018°05'3 0.5
2016-Jul-16 08:21N 59°20' E 018°11'3 4.2
2016-Jul-16 07:33N 59°20' E 018°05'0 0.0
2016-Jul-16 04:34N 59°20' E 018°05'0 0.0
2016-Jul-16 03:29N 59°20' E 018°05'0 0.0
2016-Jul-16 02:33N 59°20' E 018°05'0 0.0
2016-Jul-16 01:28N 59°20' E 018°05'0 0.0
2016-Jul-16 00:30N 59°20' E 018°05'0 0.0
2016-Jul-15 22:04N 59°20' E 018°05'0 0.0
2016-Jul-15 21:14N 59°20' E 018°05'0 0.1
2016-Jul-15 20:33N 59°20' E 018°05'0 0.1
2016-Jul-15 15:33N 59°20' E 018°05'0 0.4
2016-Jul-15 14:21N 59°20' E 018°05'1 0.2
2016-Jul-15 08:07N 59°19' E 018°06'1 1.6
2016-Jul-15 07:30N 59°20' E 018°05'0 0.0
2016-Jul-15 04:30N 59°20' E 018°05'0 0.0
2016-Jul-15 03:33N 59°20' E 018°05'0 0.0
2016-Jul-15 02:32N 59°20' E 018°05'0 0.0
2016-Jul-15 01:31N 59°20' E 018°05'0 0.0
2016-Jul-15 00:33N 59°20' E 018°05'0 0.0
2016-Jul-14 23:33N 59°20' E 018°05'0 0.0
2016-Jul-14 22:33N 59°20' E 018°05'0 0.0
2016-Jul-14 21:27N 59°20' E 018°05'0 0.1
2016-Jul-14 20:33N 59°20' E 018°05'0 0.1
2016-Jul-14 15:33N 59°20' E 018°05'0 0.5
2016-Jul-14 14:33N 59°20' E 018°05'1 0.2
2016-Jul-14 08:09N 59°19' E 018°06'1 1.9
2016-Jul-14 07:31N 59°20' E 018°05'0 0.0
2016-Jul-14 06:30N 59°20' E 018°05'0 0.0
2016-Jul-14 05:32N 59°20' E 018°05'0 0.0
2016-Jul-14 03:32N 59°20' E 018°05'0 0.0
2016-Jul-14 02:33N 59°20' E 018°05'0 0.0
2016-Jul-14 01:33N 59°20' E 018°05'0 0.0
2016-Jul-14 00:30N 59°20' E 018°05'0 0.0
2016-Jul-13 23:33N 59°20' E 018°05'0 0.0
2016-Jul-13 22:33N 59°20' E 018°05'0 0.0
2016-Jul-13 21:32N 59°20' E 018°05'3 2.5
2016-Jul-13 20:23N 59°19' E 018°10'3 0.5
2016-Jul-13 15:33N 59°20' E 018°05'0 0.4
2016-Jul-13 14:25N 59°20' E 018°05'1 0.2
2016-Jul-13 08:08N 59°19' E 018°06'  

Dump ship's entire track history